Time;durP1;ratioP1;P1;durP2;ratioP2;P2;SDS_P1;SDS_P2;PMS_P1;PMS_P2;Temp;Humidity;BMP_temperature;BMP_pressure;BME280_temperature;BME280_humidity;BME280_pressure;Samples;Min_cycle;Max_cycle;Signal;HPM_P1;HPM_P2
2022/01/14 00:02:03;;;;;;;76.10;16.17;;;-0.30;99.90;;;;;;5038326;28;20287;-63
2022/01/14 00:04:31;;;;;;;34.63;13.20;;;-0.30;99.90;;;;;;5047446;28;20192;-64
2022/01/14 00:07:00;;;;;;;27.33;13.63;;;-0.30;99.90;;;;;;5048260;28;20656;-64
2022/01/14 00:09:30;;;;;;;28.27;14.30;;;-0.30;99.90;;;;;;5041142;28;20897;-63
2022/01/14 00:12:00;;;;;;;23.20;14.30;;;-0.30;99.90;;;;;;5047157;28;20215;-63
2022/01/14 00:14:38;;;;;;;36.40;15.53;;;-0.30;99.90;;;;;;5047311;28;20303;-64
2022/01/14 00:17:10;;;;;;;25.53;14.53;;;-0.30;99.90;;;;;;5044786;28;20204;-63
2022/01/14 00:19:39;;;;;;;31.97;14.80;;;-0.30;99.90;;;;;;5045382;28;20204;-64
2022/01/14 00:22:12;;;;;;;29.10;15.03;;;-0.40;99.90;;;;;;5047113;28;20184;-64
2022/01/14 00:33:05;;;;;;;27.13;15.27;;;-0.40;99.90;;;;;;5038259;28;20232;-64
2022/01/14 00:35:35;;;;;;;32.00;15.70;;;-0.40;99.90;;;;;;5048084;28;20301;-64
2022/01/14 00:38:04;;;;;;;23.67;14.13;;;-0.40;99.90;;;;;;5042742;28;20248;-64
2022/01/14 00:40:34;;;;;;;26.43;14.30;;;-0.50;99.90;;;;;;5042648;28;20287;-63
2022/01/14 00:43:04;;;;;;;21.57;13.10;;;-0.50;99.90;;;;;;5040577;28;20272;-64
2022/01/14 00:45:32;;;;;;;24.43;14.30;;;-0.40;99.90;;;;;;5038665;28;20560;-64
2022/01/14 00:48:02;;;;;;;21.77;13.10;;;-0.50;99.90;;;;;;5046415;28;20275;-64
2022/01/14 00:50:33;;;;;;;23.80;14.00;;;-0.50;99.90;;;;;;5045932;28;20346;-64
2022/01/14 00:53:03;;;;;;;22.70;14.03;;;-0.40;99.90;;;;;;5045637;28;20216;-64
2022/01/14 00:55:45;;;;;;;26.87;13.43;;;-0.50;99.90;;;;;;5043579;28;20292;-64
2022/01/14 01:01:01;;;;;;;30.37;14.77;;;-0.50;99.90;;;;;;5046862;28;20279;-64
2022/01/14 01:03:30;;;;;;;29.20;14.00;;;-0.50;99.90;;;;;;5045895;28;20224;-64
2022/01/14 01:06:00;;;;;;;26.33;13.73;;;-0.50;99.90;;;;;;5046490;28;20216;-64
2022/01/14 01:08:30;;;;;;;22.00;13.10;;;-0.40;99.90;;;;;;5042626;28;20193;-64
2022/01/14 01:10:59;;;;;;;25.13;13.30;;;-0.40;99.90;;;;;;5039051;28;21778;-64
2022/01/14 01:13:31;;;;;;;21.10;13.10;;;-0.40;99.90;;;;;;5042769;28;20271;-64
2022/01/14 01:16:00;;;;;;;20.87;12.80;;;-0.50;99.90;;;;;;5044568;28;20180;-64
2022/01/14 01:18:29;;;;;;;24.80;13.57;;;-0.50;99.90;;;;;;5045117;28;20213;-64
2022/01/14 01:21:00;;;;;;;22.67;13.10;;;-0.50;99.90;;;;;;5046017;28;20205;-64
2022/01/14 01:23:29;;;;;;;22.57;13.80;;;-0.50;99.90;;;;;;5045633;28;20265;-64
2022/01/14 01:26:06;;;;;;;24.97;14.40;;;-0.50;99.90;;;;;;5045289;28;20189;-64
2022/01/14 01:28:42;;;;;;;23.77;13.77;;;-0.50;99.90;;;;;;5044240;28;20192;-64
2022/01/14 01:31:35;;;;;;;24.93;13.80;;;-0.50;99.90;;;;;;5062100;28;20204;-64
2022/01/14 01:34:01;;;;;;;22.90;13.00;;;-0.50;99.90;;;;;;5049776;28;20205;-64
2022/01/14 01:36:31;;;;;;;19.77;13.03;;;-0.50;99.90;;;;;;5047749;28;20824;-64
2022/01/14 01:39:02;;;;;;;22.53;13.63;;;-0.50;99.90;;;;;;5045385;28;20247;-64
2022/01/14 01:41:31;;;;;;;20.07;12.03;;;-0.50;99.90;;;;;;5050089;28;20191;-64
2022/01/14 01:44:05;;;;;;;23.20;13.63;;;-0.50;99.90;;;;;;5049711;28;20220;-64
2022/01/14 01:46:37;;;;;;;21.53;13.93;;;-0.50;99.90;;;;;;5044766;28;20215;-64
2022/01/14 01:49:06;;;;;;;28.57;12.23;;;-0.60;99.90;;;;;;5049008;28;20690;-64
2022/01/14 01:51:37;;;;;;;23.03;13.40;;;-0.60;99.90;;;;;;5048657;28;20200;-64
2022/01/14 01:54:06;;;;;;;21.70;13.60;;;-0.60;99.90;;;;;;5049359;28;20225;-64
2022/01/14 01:56:34;;;;;;;27.50;14.07;;;-0.60;99.90;;;;;;5046926;28;20276;-64
2022/01/14 01:59:04;;;;;;;24.37;14.17;;;-0.60;99.90;;;;;;5047848;28;20196;-66
2022/01/14 02:01:33;;;;;;;23.30;13.17;;;-0.70;99.90;;;;;;5048272;28;20200;-66
2022/01/14 02:04:02;;;;;;;25.03;13.50;;;-0.60;99.90;;;;;;5046801;28;20217;-66
2022/01/14 02:06:32;;;;;;;25.67;13.87;;;-0.70;99.90;;;;;;5050023;28;20285;-66
2022/01/14 02:09:02;;;;;;;22.17;13.37;;;-0.70;99.90;;;;;;5047224;28;20196;-66
2022/01/14 02:11:31;;;;;;;21.50;13.50;;;-0.70;99.90;;;;;;5046147;28;20233;-66
2022/01/14 02:14:05;;;;;;;25.83;13.50;;;-0.60;99.90;;;;;;5029453;28;20220;-66
2022/01/14 02:16:36;;;;;;;27.43;14.33;;;-0.60;99.90;;;;;;5049287;28;20970;-66
2022/01/14 02:19:15;;;;;;;28.83;16.03;;;-0.50;99.90;;;;;;5048760;28;20201;-66
2022/01/14 02:24:57;;;;;;;25.67;14.37;;;-0.40;99.90;;;;;;5044762;28;20189;-66
2022/01/14 02:27:25;;;;;;;26.97;14.10;;;-0.40;99.90;;;;;;5049034;28;20197;-66
2022/01/14 02:29:54;;;;;;;25.67;15.70;;;-0.50;99.90;;;;;;5045230;28;20209;-66
2022/01/14 02:32:22;;;;;;;27.53;15.70;;;-0.50;99.90;;;;;;5037510;28;20212;-66
2022/01/14 02:34:51;;;;;;;27.20;15.03;;;-0.50;99.90;;;;;;5048533;28;20229;-66
2022/01/14 02:37:41;;;;;;;27.47;15.17;;;-0.50;99.90;;;;;;5036870;28;20204;-67
2022/01/14 02:40:11;;;;;;;22.80;15.00;;;-0.50;99.90;;;;;;5047685;28;20223;-66
2022/01/14 02:42:40;;;;;;;27.70;15.43;;;-0.50;99.90;;;;;;5049274;28;20212;-66
2022/01/14 02:45:11;;;;;;;26.07;15.70;;;-0.60;99.90;;;;;;5046492;28;20191;-66
2022/01/14 02:47:40;;;;;;;31.47;15.43;;;-0.60;99.90;;;;;;5047918;28;20296;-66
2022/01/14 02:50:14;;;;;;;26.97;15.50;;;-0.60;99.90;;;;;;5049105;28;20200;-64
2022/01/14 02:52:56;;;;;;;32.33;16.60;;;-0.60;99.90;;;;;;5050040;28;20254;-64
2022/01/14 02:55:29;;;;;;;25.03;15.37;;;-0.60;99.90;;;;;;5046651;28;20217;-66
2022/01/14 02:58:00;;;;;;;28.77;14.50;;;-0.60;99.90;;;;;;5046284;28;20193;-66
2022/01/14 03:00:30;;;;;;;25.80;14.70;;;-0.60;99.90;;;;;;5064180;28;20197;-66
2022/01/14 03:03:01;;;;;;;26.10;15.10;;;-0.60;99.90;;;;;;5041867;28;20227;-66
2022/01/14 03:05:31;;;;;;;27.07;15.30;;;-0.60;99.90;;;;;;5048239;28;20246;-66
2022/01/14 03:08:01;;;;;;;22.57;14.00;;;-0.60;99.90;;;;;;5047940;28;20185;-64
2022/01/14 03:10:30;;;;;;;34.40;16.20;;;-0.60;99.90;;;;;;5045459;28;20282;-64
2022/01/14 03:12:59;;;;;;;26.73;15.43;;;-0.50;99.90;;;;;;5049262;28;20283;-64
2022/01/14 03:15:28;;;;;;;27.73;14.73;;;-0.60;99.90;;;;;;5047656;28;20267;-64
2022/01/14 03:17:56;;;;;;;27.63;15.03;;;-0.60;99.90;;;;;;5050591;28;20232;-64
2022/01/14 03:20:45;;;;;;;25.80;15.50;;;-0.70;99.90;;;;;;5046643;28;20205;-64
2022/01/14 03:23:16;;;;;;;24.63;14.07;;;-0.70;99.90;;;;;;5048300;28;20201;-64
2022/01/14 03:25:52;;;;;;;25.70;14.90;;;-0.70;99.90;;;;;;5047475;28;20513;-64
2022/01/14 03:28:23;;;;;;;30.93;15.53;;;-0.70;99.90;;;;;;5041598;28;20263;-64
2022/01/14 03:30:53;;;;;;;27.60;15.30;;;-0.70;99.90;;;;;;5043978;28;20285;-64
2022/01/14 03:33:22;;;;;;;26.10;15.87;;;-0.70;99.90;;;;;;5048657;28;20276;-64
2022/01/14 03:35:51;;;;;;;30.20;16.17;;;-0.70;99.90;;;;;;5045880;28;20228;-64
2022/01/14 03:38:21;;;;;;;26.37;14.57;;;-0.70;99.90;;;;;;5044840;28;20185;-64
2022/01/14 03:40:51;;;;;;;23.00;14.23;;;-0.70;99.90;;;;;;5046480;28;20201;-64
2022/01/14 03:43:21;;;;;;;28.57;15.23;;;-0.80;99.90;;;;;;5046372;28;20283;-64
2022/01/14 03:45:50;;;;;;;32.13;16.23;;;-0.80;99.90;;;;;;5048680;28;20201;-64
2022/01/14 03:48:19;;;;;;;31.50;16.67;;;-0.90;99.90;;;;;;5044529;28;20259;-64
2022/01/14 03:50:47;;;;;;;27.77;15.33;;;-0.90;99.90;;;;;;5044682;28;20607;-64
2022/01/14 03:53:18;;;;;;;34.20;15.77;;;-0.90;99.90;;;;;;5047716;28;20197;-64
2022/01/14 03:55:47;;;;;;;29.50;15.97;;;-0.90;99.90;;;;;;5046752;28;20254;-64
2022/01/14 03:58:36;;;;;;;30.00;15.63;;;-0.90;99.90;;;;;;5045267;28;20224;-64
2022/01/14 04:01:06;;;;;;;26.63;15.90;;;-0.90;99.90;;;;;;5041291;28;20275;-64
2022/01/14 04:03:35;;;;;;;32.53;14.80;;;-0.90;99.90;;;;;;5029577;28;20236;-66
2022/01/14 04:06:04;;;;;;;30.80;15.53;;;-1.00;99.90;;;;;;5046780;28;20208;-66
2022/01/14 04:08:33;;;;;;;32.33;16.77;;;-1.00;99.90;;;;;;5046259;28;20192;-66
2022/01/14 04:11:04;;;;;;;32.93;15.77;;;-1.00;99.90;;;;;;5043781;28;20644;-66
2022/01/14 04:13:43;;;;;;;29.97;15.87;;;-1.00;99.90;;;;;;5028286;28;20259;-66
2022/01/14 04:16:12;;;;;;;26.67;15.77;;;-1.00;99.90;;;;;;5046748;28;20260;-66
2022/01/14 04:18:41;;;;;;;36.17;17.57;;;-0.90;99.90;;;;;;5046570;28;20270;-66
2022/01/14 04:21:09;;;;;;;29.50;16.50;;;-0.80;99.90;;;;;;5045712;28;20679;-66
2022/01/14 04:23:38;;;;;;;39.27;18.83;;;-0.80;99.90;;;;;;5045829;28;20204;-64
2022/01/14 04:26:08;;;;;;;38.27;19.20;;;-0.70;99.90;;;;;;5045834;28;20200;-64
2022/01/14 04:28:37;;;;;;;36.40;18.13;;;-0.60;99.90;;;;;;5028612;28;20197;-64
2022/01/14 04:31:07;;;;;;;35.00;17.90;;;-0.60;99.90;;;;;;5035116;28;20199;-64
2022/01/14 04:33:36;;;;;;;34.83;18.73;;;-0.50;99.90;;;;;;5044719;28;20189;-64
2022/01/14 04:36:06;;;;;;;38.47;19.93;;;-0.50;99.90;;;;;;5045388;28;20235;-64
2022/01/14 04:38:36;;;;;;;40.43;20.37;;;-0.60;99.90;;;;;;5044603;28;20227;-64
2022/01/14 04:41:04;;;;;;;37.33;18.90;;;-0.60;99.90;;;;;;5047896;28;20201;-64
2022/01/14 04:43:34;;;;;;;43.77;20.23;;;-0.60;99.90;;;;;;5045720;28;20188;-64
2022/01/14 04:46:35;;;;;;;42.53;20.63;;;-0.60;99.90;;;;;;5042980;28;20239;-66
2022/01/14 04:49:02;;;;;;;40.70;19.87;;;-0.50;99.90;;;;;;5046041;28;20723;-66
2022/01/14 04:51:31;;;;;;;40.30;20.83;;;-0.50;99.90;;;;;;5041275;28;20269;-66
2022/01/14 04:53:59;;;;;;;40.57;19.40;;;-0.60;99.90;;;;;;5044267;28;20577;-66
2022/01/14 04:56:28;;;;;;;38.53;20.20;;;-0.60;99.90;;;;;;5040599;28;20205;-64
2022/01/14 04:58:58;;;;;;;42.70;21.30;;;-0.60;99.90;;;;;;5046663;28;20296;-64
2022/01/14 05:01:26;;;;;;;43.33;21.17;;;-0.50;99.90;;;;;;5044876;28;20197;-66
2022/01/14 05:03:57;;;;;;;38.50;21.20;;;-0.50;99.90;;;;;;5044923;28;20228;-66
2022/01/14 05:06:27;;;;;;;40.33;20.53;;;-0.60;99.90;;;;;;5045879;28;20185;-64
2022/01/14 05:08:55;;;;;;;37.73;20.63;;;-0.60;99.90;;;;;;5046980;28;20193;-64
2022/01/14 05:11:36;;;;;;;44.70;22.13;;;-0.50;99.90;;;;;;5046712;28;20359;-64
2022/01/14 05:14:06;;;;;;;48.03;21.03;;;-0.50;99.90;;;;;;5043964;28;20189;-64
2022/01/14 05:16:35;;;;;;;42.73;21.17;;;-0.50;99.90;;;;;;5046191;28;20213;-64
2022/01/14 05:19:03;;;;;;;46.10;21.97;;;-0.60;99.90;;;;;;5045598;28;20197;-64
2022/01/14 05:21:32;;;;;;;48.13;21.23;;;-0.70;99.90;;;;;;5045218;28;20191;-64
2022/01/14 05:24:00;;;;;;;49.50;22.17;;;-0.70;99.90;;;;;;5044460;28;20250;-64
2022/01/14 05:26:29;;;;;;;48.60;23.03;;;-0.70;99.90;;;;;;5043525;28;20699;-64
2022/01/14 05:28:57;;;;;;;42.53;21.13;;;-0.70;99.90;;;;;;5044297;28;20898;-64
2022/01/14 05:34:19;;;;;;;53.03;23.67;;;-0.70;99.90;;;;;;5077293;27;20570;-65
2022/01/14 05:36:48;;;;;;;45.33;22.87;;;-0.60;99.90;;;;;;5066960;28;20234;-66
2022/01/14 05:39:20;;;;;;;45.90;23.37;;;-0.60;99.90;;;;;;5061995;28;20547;-66
2022/01/14 05:41:48;;;;;;;43.87;22.80;;;-0.50;99.90;;;;;;5065155;28;20682;-66
2022/01/14 05:44:17;;;;;;;49.03;22.67;;;-0.50;99.90;;;;;;5068125;28;20200;-66
2022/01/14 05:46:46;;;;;;;47.87;22.57;;;-0.50;99.90;;;;;;5063386;28;20683;-66
2022/01/14 05:49:15;;;;;;;44.90;22.10;;;-0.50;99.90;;;;;;5062938;28;20640;-66
2022/01/14 05:51:46;;;;;;;48.67;22.77;;;-0.50;99.90;;;;;;5063426;28;20203;-66
2022/01/14 05:54:16;;;;;;;42.73;21.50;;;-0.50;99.90;;;;;;5060119;28;20688;-66
2022/01/14 05:56:44;;;;;;;46.73;21.40;;;-0.50;99.90;;;;;;5065708;28;20619;-66
2022/01/14 05:59:13;;;;;;;46.07;21.57;;;-0.60;99.90;;;;;;5063879;28;20196;-66
2022/01/14 06:01:42;;;;;;;43.17;22.33;;;-0.50;99.90;;;;;;5059363;28;20655;-66
2022/01/14 06:04:48;;;;;;;49.80;22.80;;;-0.50;99.90;;;;;;5061087;28;20664;-65
2022/01/14 06:07:55;;;;;;;39.30;21.30;;;-0.50;99.90;;;;;;5067587;28;20191;-66
2022/01/14 06:10:24;;;;;;;45.53;21.73;;;-0.50;99.90;;;;;;5055873;28;20265;-66
2022/01/14 06:12:52;;;;;;;46.87;22.40;;;-0.50;99.90;;;;;;5064345;28;20212;-66
2022/01/14 06:15:20;;;;;;;48.20;22.17;;;-0.50;99.90;;;;;;5063043;28;20238;-65
2022/01/14 06:17:49;;;;;;;42.47;22.03;;;-0.50;99.90;;;;;;5062885;28;20215;-66
2022/01/14 06:20:17;;;;;;;53.53;22.63;;;-0.40;99.90;;;;;;5065803;28;20292;-66
2022/01/14 06:22:45;;;;;;;49.27;24.60;;;-0.40;99.90;;;;;;5068677;28;20262;-66
2022/01/14 06:25:16;;;;;;;51.60;23.13;;;-0.30;99.90;;;;;;5066290;28;20196;-66
2022/01/14 06:27:44;;;;;;;53.57;23.33;;;-0.30;99.90;;;;;;5062982;28;20216;-66
2022/01/14 06:30:14;;;;;;;60.90;25.90;;;-0.40;99.90;;;;;;5090291;28;20192;-66
2022/01/14 06:32:43;;;;;;;52.00;24.00;;;-0.40;99.90;;;;;;5055575;28;20562;-66
2022/01/14 06:35:13;;;;;;;47.43;22.50;;;-0.50;99.90;;;;;;5057994;28;20242;-66
2022/01/14 06:37:43;;;;;;;57.10;23.83;;;-0.60;99.90;;;;;;5055014;28;20251;-66
2022/01/14 06:40:12;;;;;;;57.07;23.37;;;-0.70;99.90;;;;;;5058647;28;20201;-66
2022/01/14 06:42:48;;;;;;;50.37;22.70;;;-0.80;99.90;;;;;;5050608;28;20614;-66
2022/01/14 06:45:16;;;;;;;46.00;22.33;;;-0.80;99.90;;;;;;5049553;28;20300;-66
2022/01/14 06:47:44;;;;;;;50.97;22.10;;;-0.90;99.90;;;;;;5079134;28;20219;-66
2022/01/14 06:50:13;;;;;;;48.27;21.70;;;-1.00;99.90;;;;;;5046996;28;20769;-66
2022/01/14 06:52:42;;;;;;;49.10;21.63;;;-1.00;99.90;;;;;;5049543;28;20239;-66
2022/01/14 06:55:11;;;;;;;44.27;21.50;;;-1.00;99.90;;;;;;5050065;28;20810;-66
2022/01/14 06:57:40;;;;;;;43.03;21.23;;;-1.00;99.90;;;;;;5044774;28;20207;-66
2022/01/14 07:00:14;;;;;;;42.87;20.87;;;-1.00;99.90;;;;;;5051080;28;20200;-66
2022/01/14 07:02:42;;;;;;;48.03;23.70;;;-1.00;99.90;;;;;;5047507;28;20559;-66
2022/01/14 07:05:12;;;;;;;49.07;22.73;;;-0.90;99.90;;;;;;5048735;28;20196;-66
2022/01/14 07:07:41;;;;;;;48.53;23.97;;;-0.80;99.90;;;;;;5053860;28;20907;-66
2022/01/14 07:10:14;;;;;;;56.87;23.53;;;-0.60;99.90;;;;;;5056566;28;20193;-65
2022/01/14 07:12:44;;;;;;;54.43;23.47;;;-0.60;99.90;;;;;;5058083;28;20303;-66
2022/01/14 07:15:16;;;;;;;50.87;24.20;;;-0.50;99.90;;;;;;5051863;28;20196;-66
2022/01/14 07:17:45;;;;;;;48.93;22.70;;;-0.50;99.90;;;;;;5052349;28;20655;-66
2022/01/14 07:20:17;;;;;;;45.03;21.77;;;-0.50;99.90;;;;;;5055804;28;20197;-66
2022/01/14 07:22:47;;;;;;;53.20;23.50;;;-0.50;99.90;;;;;;5074017;28;20219;-66
2022/01/14 07:25:18;;;;;;;46.10;21.70;;;-0.50;99.90;;;;;;5054244;28;20196;-66
2022/01/14 07:27:47;;;;;;;64.50;23.33;;;-0.50;99.90;;;;;;5055016;28;20221;-66
2022/01/14 07:30:17;;;;;;;72.43;25.57;;;-0.40;99.90;;;;;;5062855;28;20673;-66
2022/01/14 07:32:46;;;;;;;66.20;23.40;;;-0.30;99.90;;;;;;5059273;28;20699;-66
2022/01/14 07:35:15;;;;;;;100.90;27.13;;;-0.30;99.90;;;;;;5052808;28;20621;-66
2022/01/14 07:37:43;;;;;;;75.90;25.57;;;-0.20;99.90;;;;;;5044532;28;20276;-66
2022/01/14 07:40:13;;;;;;;61.10;23.83;;;-0.10;99.90;;;;;;5046626;28;20215;-66
2022/01/14 07:42:41;;;;;;;96.07;26.70;;;0.00;99.90;;;;;;5051750;28;20724;-66
2022/01/14 07:45:10;;;;;;;85.93;26.23;;;0.00;99.90;;;;;;5042575;28;20281;-66
2022/01/14 07:47:40;;;;;;;73.07;24.67;;;0.00;99.90;;;;;;5038754;28;20312;-66
2022/01/14 07:50:09;;;;;;;67.33;26.20;;;0.00;99.90;;;;;;5043977;28;20196;-66
2022/01/14 07:52:37;;;;;;;61.63;25.30;;;0.10;99.90;;;;;;5041873;28;20242;-66
2022/01/14 07:55:07;;;;;;;138.87;29.90;;;0.10;99.90;;;;;;5047897;28;20568;-66
2022/01/14 07:57:35;;;;;;;141.33;30.23;;;0.10;99.90;;;;;;5046222;28;20203;-66
2022/01/14 08:00:06;;;;;;;79.20;27.47;;;0.10;99.90;;;;;;5045871;28;20204;-66
2022/01/14 08:02:34;;;;;;;128.07;29.63;;;0.20;99.90;;;;;;5047204;28;20209;-66
2022/01/14 08:05:05;;;;;;;103.40;28.40;;;0.20;99.90;;;;;;5053253;28;20209;-66
2022/01/14 08:07:35;;;;;;;179.40;40.13;;;0.20;99.90;;;;;;5047747;28;20292;-66
2022/01/14 08:10:06;;;;;;;440.27;87.90;;;0.20;99.90;;;;;;5051663;28;20275;-66
2022/01/14 08:12:36;;;;;;;137.43;48.83;;;0.20;99.90;;;;;;5045566;28;20207;-66
2022/01/14 08:15:05;;;;;;;325.00;74.17;;;0.20;99.90;;;;;;5036491;28;20680;-66
2022/01/14 08:17:33;;;;;;;163.00;50.90;;;0.20;99.90;;;;;;5047415;28;20672;-66
2022/01/14 08:20:04;;;;;;;167.07;35.13;;;0.20;99.90;;;;;;5042680;28;20198;-66
2022/01/14 08:22:32;;;;;;;112.30;27.60;;;0.20;99.90;;;;;;5049232;28;20196;-66
2022/01/14 08:25:01;;;;;;;155.63;34.80;;;0.20;99.90;;;;;;5051678;28;20254;-66
2022/01/14 08:27:29;;;;;;;113.23;27.53;;;0.20;99.90;;;;;;5053893;28;20204;-66
2022/01/14 08:29:58;;;;;;;89.40;27.57;;;0.20;99.90;;;;;;5042003;28;20258;-66
2022/01/14 08:32:26;;;;;;;81.73;25.70;;;0.20;99.90;;;;;;5049179;28;20323;-66
2022/01/14 08:34:54;;;;;;;63.17;23.97;;;0.20;99.90;;;;;;5047733;28;20292;-66
2022/01/14 08:37:24;;;;;;;52.37;22.90;;;0.20;99.90;;;;;;5043265;28;20272;-66
2022/01/14 08:39:53;;;;;;;62.10;23.67;;;0.30;99.90;;;;;;5040855;28;20276;-66
2022/01/14 08:42:22;;;;;;;57.93;24.23;;;0.30;99.90;;;;;;5042964;28;20197;-66
2022/01/14 08:44:50;;;;;;;79.83;25.27;;;0.40;99.90;;;;;;5043551;28;20549;-66
2022/01/14 08:47:19;;;;;;;47.93;24.23;;;0.40;99.90;;;;;;5044342;28;20212;-66
2022/01/14 08:49:47;;;;;;;58.17;23.60;;;0.40;99.90;;;;;;5056205;28;20203;-66
2022/01/14 08:52:16;;;;;;;70.67;26.07;;;0.50;99.90;;;;;;5044642;28;20275;-66
2022/01/14 08:54:46;;;;;;;78.20;28.07;;;0.50;99.90;;;;;;5042301;28;20295;-66
2022/01/14 08:57:14;;;;;;;119.80;30.73;;;0.50;99.90;;;;;;5044822;28;20228;-66
2022/01/14 08:59:43;;;;;;;71.00;26.63;;;0.50;99.90;;;;;;5050440;28;20228;-66
2022/01/14 09:02:11;;;;;;;93.90;28.50;;;0.60;99.90;;;;;;5049164;28;20604;-66
2022/01/14 09:04:40;;;;;;;108.07;37.73;;;0.60;99.90;;;;;;5055812;28;20189;-66
2022/01/14 09:07:08;;;;;;;61.67;26.70;;;0.60;99.90;;;;;;5042345;28;20702;-66
2022/01/14 09:09:37;;;;;;;55.53;24.60;;;0.60;99.90;;;;;;5048367;28;20232;-66
2022/01/14 09:12:11;;;;;;;72.10;29.43;;;0.70;99.90;;;;;;5041272;28;20288;-66
2022/01/14 09:14:39;;;;;;;67.93;26.63;;;0.80;99.90;;;;;;5045641;28;20216;-66
2022/01/14 09:17:08;;;;;;;62.00;26.47;;;0.80;99.90;;;;;;5044124;28;20254;-66
2022/01/14 09:19:36;;;;;;;37.73;23.73;;;0.90;99.90;;;;;;5041809;28;20354;-66
2022/01/14 09:22:06;;;;;;;47.80;24.63;;;1.10;99.90;;;;;;5049201;28;20677;-66
2022/01/14 09:24:46;;;;;;;51.17;25.57;;;1.10;99.90;;;;;;5047199;28;20219;-66
2022/01/14 09:27:16;;;;;;;57.93;34.33;;;1.10;99.90;;;;;;5043389;28;20196;-66
2022/01/14 09:29:45;;;;;;;188.80;37.27;;;1.10;99.90;;;;;;5031647;28;20227;-66
2022/01/14 09:32:13;;;;;;;114.47;30.73;;;1.20;99.90;;;;;;5047393;28;20307;-66
2022/01/14 09:34:42;;;;;;;795.83;87.30;;;1.20;99.90;;;;;;5036440;28;20252;-65
2022/01/14 09:37:10;;;;;;;52.37;27.20;;;1.20;99.90;;;;;;5043715;28;20216;-65
2022/01/14 09:39:43;;;;;;;53.00;29.57;;;1.20;99.90;;;;;;5049953;28;20264;-65
2022/01/14 09:42:11;;;;;;;50.60;29.27;;;1.30;99.90;;;;;;5044247;28;20192;-65
2022/01/14 09:44:42;;;;;;;58.03;31.13;;;1.30;99.90;;;;;;5042992;28;20244;-65
2022/01/14 09:47:16;;;;;;;52.27;29.37;;;1.40;99.90;;;;;;5039380;28;20208;-66
2022/01/14 09:49:45;;;;;;;44.10;25.13;;;1.50;99.90;;;;;;5049885;28;20224;-66
2022/01/14 09:52:14;;;;;;;41.20;25.30;;;1.60;99.90;;;;;;5046076;28;20603;-65
2022/01/14 09:54:42;;;;;;;40.23;25.33;;;1.80;99.90;;;;;;5049933;28;20244;-66
2022/01/14 09:57:12;;;;;;;45.43;25.63;;;1.90;99.90;;;;;;5044509;28;20307;-65
2022/01/14 09:59:42;;;;;;;42.43;26.60;;;2.00;99.90;;;;;;5052188;28;20659;-66
2022/01/14 10:02:29;;;;;;;40.87;25.43;;;2.10;99.90;;;;;;5050414;28;20225;-66
2022/01/14 10:04:58;;;;;;;44.27;26.67;;;2.20;99.90;;;;;;5045633;28;20303;-66
2022/01/14 10:07:27;;;;;;;47.60;28.07;;;2.20;99.90;;;;;;5047218;28;20263;-65
2022/01/14 10:10:01;;;;;;;48.20;27.70;;;2.30;99.90;;;;;;5053628;28;20203;-65
2022/01/14 10:12:34;;;;;;;46.27;27.70;;;2.40;99.90;;;;;;5046070;28;20212;-66
2022/01/14 10:15:08;;;;;;;48.30;29.77;;;2.50;99.90;;;;;;5047127;28;20214;-65
2022/01/14 10:17:39;;;;;;;50.77;31.23;;;2.60;99.90;;;;;;5052308;28;20203;-66
2022/01/14 10:20:09;;;;;;;50.20;28.30;;;2.70;99.90;;;;;;5055377;28;20264;-66
2022/01/14 10:22:42;;;;;;;47.67;29.90;;;2.80;99.90;;;;;;5054289;28;20284;-66
2022/01/14 10:25:13;;;;;;;44.17;27.03;;;2.90;99.90;;;;;;5056061;28;20197;-66
2022/01/14 10:27:44;;;;;;;41.90;27.40;;;3.00;99.90;;;;;;5049069;28;20201;-66
2022/01/14 10:30:18;;;;;;;44.30;29.10;;;3.10;99.90;;;;;;5044818;28;20691;-66
2022/01/14 10:32:57;;;;;;;46.83;32.00;;;3.30;99.90;;;;;;5046993;28;20221;-66
2022/01/14 10:35:27;;;;;;;49.07;35.50;;;3.60;99.90;;;;;;5055384;28;20668;-66
2022/01/14 10:37:59;;;;;;;43.57;28.53;;;3.80;99.90;;;;;;5051302;28;20196;-66
2022/01/14 10:40:30;;;;;;;43.23;29.10;;;4.00;99.90;;;;;;5046279;28;20273;-66
2022/01/14 10:43:02;;;;;;;27.97;22.67;;;4.30;99.90;;;;;;5039174;28;20220;-66
2022/01/14 10:45:52;;;;;;;31.87;23.77;;;4.40;99.90;;;;;;5039826;28;20211;-66
2022/01/14 10:48:29;;;;;;;27.77;21.60;;;4.60;99.90;;;;;;5047756;28;20283;-66
2022/01/14 10:50:59;;;;;;;23.30;19.53;;;4.70;99.90;;;;;;5048270;28;20227;-66
2022/01/14 10:53:30;;;;;;;26.00;20.60;;;4.80;99.90;;;;;;5041691;28;20197;-66
2022/01/14 10:56:02;;;;;;;20.60;17.50;;;4.90;99.90;;;;;;5050284;28;20201;-66
2022/01/14 10:58:32;;;;;;;23.57;17.90;;;5.00;99.90;;;;;;5047555;28;20193;-66
2022/01/14 11:01:07;;;;;;;19.90;16.13;;;5.10;99.90;;;;;;5050087;28;20204;-66
2022/01/14 11:03:37;;;;;;;16.63;13.33;;;5.10;99.90;;;;;;5073954;28;20205;-67
2022/01/14 11:06:17;;;;;;;19.43;13.80;;;5.10;99.90;;;;;;5049521;28;20709;-66
2022/01/14 11:08:46;;;;;;;15.70;13.00;;;5.30;99.90;;;;;;5049935;28;20653;-66
2022/01/14 11:11:15;;;;;;;15.43;12.87;;;5.20;99.90;;;;;;5052162;28;20239;-66
2022/01/14 11:13:45;;;;;;;15.37;13.73;;;5.40;99.90;;;;;;5046859;28;20192;-66
2022/01/14 11:16:15;;;;;;;15.47;13.60;;;5.50;99.90;;;;;;5037741;28;20711;-66
2022/01/14 11:18:45;;;;;;;14.03;12.63;;;5.60;99.90;;;;;;5047308;28;20251;-66
2022/01/14 11:24:03;;;;;;;14.40;12.33;;;5.70;99.90;;;;;;5044202;28;20205;-66
2022/01/14 11:26:35;;;;;;;10.97;9.97;;;5.80;99.90;;;;;;5075667;28;20204;-66
2022/01/14 11:29:07;;;;;;;12.30;11.10;;;5.80;99.90;;;;;;5048909;28;20598;-66
2022/01/14 11:31:38;;;;;;;11.90;10.80;;;6.10;99.90;;;;;;5045168;28;20200;-66
2022/01/14 11:34:10;;;;;;;12.10;10.90;;;6.10;99.90;;;;;;5043017;28;20220;-66
2022/01/14 11:36:51;;;;;;;13.53;11.00;;;6.30;99.90;;;;;;5052330;28;20197;-66
2022/01/14 11:39:22;;;;;;;12.20;11.07;;;6.40;99.90;;;;;;5051718;28;20192;-66
2022/01/14 11:41:53;;;;;;;11.50;10.33;;;6.30;99.90;;;;;;5042804;28;20908;-66
2022/01/14 11:44:44;;;;;;;11.60;10.50;;;6.40;99.90;;;;;;5041798;28;20552;-66
2022/01/14 11:47:48;;;;;;;11.47;9.80;;;6.70;99.90;;;;;;5047304;28;20262;-66
2022/01/14 11:50:46;;;;;;;11.10;9.90;;;6.80;99.90;;;;;;5045893;28;20807;-66
2022/01/14 11:53:35;;;;;;;11.03;9.97;;;6.80;99.90;;;;;;5051671;28;20306;-66
2022/01/14 11:56:05;;;;;;;12.23;10.93;;;6.80;99.90;;;;;;5047484;28;20217;-66
2022/01/14 11:58:36;;;;;;;11.57;10.47;;;6.70;99.90;;;;;;5047713;28;20275;-66
2022/01/14 12:01:05;;;;;;;18.50;16.10;;;6.60;99.90;;;;;;5046394;28;20200;-66
2022/01/14 12:04:13;;;;;;;11.40;10.30;;;6.60;99.90;;;;;;5044139;28;20275;-66
2022/01/14 12:07:19;;;;;;;11.77;10.57;;;6.60;99.90;;;;;;5042483;28;20666;-67
2022/01/14 12:10:00;;;;;;;11.93;10.73;;;6.70;99.90;;;;;;5042489;28;20622;-66
2022/01/14 12:12:31;;;;;;;13.67;12.27;;;6.90;99.90;;;;;;5041293;28;20300;-66
2022/01/14 12:15:02;;;;;;;13.63;12.13;;;7.00;99.90;;;;;;5047939;28;20648;-66
2022/01/14 12:17:34;;;;;;;13.30;12.00;;;7.10;99.90;;;;;;5046936;28;20257;-66
2022/01/14 12:20:12;;;;;;;13.30;11.93;;;7.20;99.90;;;;;;5045491;28;20559;-66
2022/01/14 12:23:06;;;;;;;11.50;10.40;;;7.30;99.90;;;;;;5041471;28;20236;-66
2022/01/14 12:25:40;;;;;;;11.77;10.57;;;7.50;99.90;;;;;;5054908;28;20303;-66
2022/01/14 12:28:17;;;;;;;11.63;10.43;;;7.70;99.90;;;;;;5045984;28;20282;-66
2022/01/14 12:30:57;;;;;;;12.37;11.17;;;7.70;99.90;;;;;;5043860;28;20537;-66
2022/01/14 12:33:45;;;;;;;12.03;10.87;;;7.70;99.90;;;;;;5047868;28;20253;-66
2022/01/14 12:36:17;;;;;;;12.80;11.60;;;7.70;99.90;;;;;;5078145;28;20216;-66
2022/01/14 12:38:47;;;;;;;13.93;12.73;;;7.60;99.90;;;;;;5048841;28;20199;-66
2022/01/14 12:41:16;;;;;;;15.20;13.60;;;7.70;99.90;;;;;;5046306;28;20242;-66
2022/01/14 12:43:48;;;;;;;12.67;11.47;;;7.60;99.90;;;;;;5039545;28;20204;-66
2022/01/14 12:46:35;;;;;;;14.20;12.73;;;7.50;99.90;;;;;;5073832;28;20189;-65
2022/01/14 12:49:08;;;;;;;13.33;10.93;;;7.60;99.90;;;;;;5044506;28;20668;-65
2022/01/14 12:51:38;;;;;;;12.27;11.00;;;7.50;99.90;;;;;;5042505;28;20262;-65
2022/01/14 12:54:11;;;;;;;13.00;11.80;;;7.60;99.90;;;;;;5051413;28;20235;-66
2022/01/14 12:56:41;;;;;;;12.20;11.07;;;7.70;99.90;;;;;;5052365;28;20316;-66
2022/01/14 12:59:13;;;;;;;11.60;10.50;;;7.70;99.90;;;;;;5045831;28;20288;-66
2022/01/14 13:01:43;;;;;;;12.93;11.63;;;7.70;99.90;;;;;;5050889;28;20227;-66
2022/01/14 13:04:14;;;;;;;13.07;11.67;;;7.80;99.90;;;;;;5045656;28;20208;-66
2022/01/14 13:06:55;;;;;;;14.20;12.30;;;7.80;99.90;;;;;;5076142;28;20219;-65
2022/01/14 13:09:25;;;;;;;12.70;11.50;;;7.80;99.90;;;;;;5044410;28;20283;-66
2022/01/14 13:11:57;;;;;;;13.17;11.90;;;7.80;99.90;;;;;;5046183;28;20204;-66
2022/01/14 13:14:33;;;;;;;12.57;11.37;;;7.80;99.90;;;;;;5045980;28;20290;-65